Time;durP1;ratioP1;P1;durP2;ratioP2;P2;SDS_P1;SDS_P2;PMS_P1;PMS_P2;Temp;Humidity;BMP_temperature;BMP_pressure;BME280_temperature;BME280_humidity;BME280_pressure;Samples;Min_cycle;Max_cycle;Signal;HPM_P1;HPM_P2
2023/01/24 00:01:11;;;;;;;;;;;;;;;9.56;47.15;102864.31;4977389;27;127543;-65
2023/01/24 00:03:37;;;;;;;;;;;;;;;9.56;47.32;102864.31;4972443;27;127716;-66
2023/01/24 00:06:03;;;;;;;;;;;;;;;9.55;47.14;102857.28;4967854;27;111423;-65
2023/01/24 00:08:29;;;;;;;;;;;;;;;9.55;47.15;102865.38;4983547;27;113319;-66
2023/01/24 00:10:59;;;;;;;;;;;;;;;9.54;47.35;102863.69;4963182;27;127416;-65
2023/01/24 00:13:25;;;;;;;;;;;;;;;9.53;46.71;102864.72;4992320;27;97960;-65
2023/01/24 00:15:51;;;;;;;;;;;;;;;9.52;47.53;102863.91;4987139;27;98260;-65
2023/01/24 00:18:17;;;;;;;;;;;;;;;9.52;47.35;102869.28;4978545;27;103267;-66
2023/01/24 00:20:43;;;;;;;;;;;;;;;9.51;47.38;102859.56;4979453;27;129401;-65
2023/01/24 00:23:09;;;;;;;;;;;;;;;9.51;47.30;102859.56;4989801;27;125749;-65
2023/01/24 00:25:35;;;;;;;;;;;;;;;9.51;47.28;102862.25;4965528;27;111696;-66
2023/01/24 00:28:00;;;;;;;;;;;;;;;9.50;46.94;102857.88;4997098;27;122093;-65
2023/01/24 00:30:26;;;;;;;;;;;;;;;9.50;47.44;102854.34;4991548;27;127317;-65
2023/01/24 00:32:52;;;;;;;;;;;;;;;9.49;47.72;102853.53;4978886;27;98041;-66
2023/01/24 00:35:18;;;;;;;;;;;;;;;9.49;47.33;102848.16;4966503;27;114161;-66
2023/01/24 00:37:44;;;;;;;;;;;;;;;9.49;47.08;102850.84;4962372;27;106950;-65
2023/01/24 00:40:10;;;;;;;;;;;;;;;9.48;47.33;102857.25;4977780;27;128177;-65
2023/01/24 00:42:36;;;;;;;;;;;;;;;9.47;47.38;102861.00;4973218;27;98274;-66
2023/01/24 00:45:02;;;;;;;;;;;;;;;9.48;47.75;102862.66;4983752;27;108890;-66
2023/01/24 00:47:28;;;;;;;;;;;;;;;9.48;47.07;102869.91;4978356;27;99509;-65
2023/01/24 00:49:54;;;;;;;;;;;;;;;9.47;47.31;102860.13;4989811;27;128508;-66
2023/01/24 00:52:20;;;;;;;;;;;;;;;9.47;47.45;102863.69;4994363;27;127686;-66
2023/01/24 00:54:46;;;;;;;;;;;;;;;9.46;46.63;102859.31;4991933;27;110510;-65
2023/01/24 00:57:12;;;;;;;;;;;;;;;9.46;47.36;102864.69;4977744;27;98591;-67
2023/01/24 00:59:38;;;;;;;;;;;;;;;9.46;47.42;102869.25;4964741;27;126973;-65
2023/01/24 01:02:04;;;;;;;;;;;;;;;9.47;47.49;102865.53;4995098;27;126463;-66
2023/01/24 01:04:30;;;;;;;;;;;;;;;9.46;47.07;102869.25;4983581;27;98911;-66
2023/01/24 01:06:56;;;;;;;;;;;;;;;9.46;47.31;102867.38;4977321;27;128642;-65
2023/01/24 01:09:22;;;;;;;;;;;;;;;9.45;47.39;102862.22;4966486;27;128151;-66
2023/01/24 01:11:47;;;;;;;;;;;;;;;9.46;47.14;102861.19;4978893;27;126534;-65
2023/01/24 01:14:13;;;;;;;;;;;;;;;9.45;47.44;102868.44;4981992;27;112569;-65
2023/01/24 01:16:39;;;;;;;;;;;;;;;9.45;47.14;102865.72;4967958;27;128826;-66
2023/01/24 01:19:05;;;;;;;;;;;;;;;9.44;47.29;102861.38;4976563;27;98130;-66
2023/01/24 01:21:31;;;;;;;;;;;;;;;9.46;47.30;102866.56;4964414;27;98076;-66
2023/01/24 01:23:57;;;;;;;;;;;;;;;9.45;47.14;102854.97;4974206;27;113434;-65
2023/01/24 01:26:23;;;;;;;;;;;;;;;9.46;47.47;102853.09;4974138;27;126421;-66
2023/01/24 01:28:49;;;;;;;;;;;;;;;9.45;47.46;102857.66;4992123;27;128702;-65
2023/01/24 01:31:15;;;;;;;;;;;;;;;9.44;47.73;102856.00;4964938;27;114294;-65
2023/01/24 01:33:42;;;;;;;;;;;;;;;9.45;47.06;102856.84;4975763;27;99238;-65
2023/01/24 01:36:08;;;;;;;;;;;;;;;9.45;47.36;102860.34;4978709;27;98504;-65
2023/01/24 01:38:34;;;;;;;;;;;;;;;9.45;46.75;102857.66;4966567;27;118825;-68
2023/01/24 01:41:00;;;;;;;;;;;;;;;9.45;47.13;102854.97;4963940;27;128404;-66
2023/01/24 01:43:27;;;;;;;;;;;;;;;9.45;47.25;102857.66;4976204;27;104442;-65
2023/01/24 01:45:57;;;;;;;;;;;;;;;9.46;47.33;102848.53;4980684;27;98278;-65
2023/01/24 01:48:42;;;;;;;;;;;;;;;9.45;47.30;102846.88;4980999;27;101125;-65
2023/01/24 01:51:17;;;;;;;;;;;;;;;9.46;47.74;102850.41;4979183;27;119263;-66
2023/01/24 01:54:05;;;;;;;;;;;;;;;9.45;47.30;102846.88;4993802;27;98218;-66
2023/01/24 01:56:40;;;;;;;;;;;;;;;9.45;47.29;102852.28;4989466;27;99400;-66
2023/01/24 01:59:11;;;;;;;;;;;;;;;9.46;47.23;102853.94;4978464;27;128222;-67
2023/01/24 02:01:37;;;;;;;;;;;;;;;9.45;47.13;102854.13;4992972;27;99290;-66
2023/01/24 02:04:12;;;;;;;;;;;;;;;9.45;46.82;102843.38;4978334;27;111913;-66
2023/01/24 02:06:49;;;;;;;;;;;;;;;9.46;47.33;102855.78;4993403;27;98362;-65
2023/01/24 02:09:18;;;;;;;;;;;;;;;9.45;47.09;102854.97;4981797;27;104398;-66
2023/01/24 02:11:44;;;;;;;;;;;;;;;9.45;46.68;102848.75;4994754;27;108180;-66
2023/01/24 02:16:56;;;;;;;;;;;;;;;9.45;46.95;102851.44;4979916;27;98200;-65
2023/01/24 02:19:36;;;;;;;;;;;;;;;9.45;47.44;102851.44;4979006;27;99736;-66
2023/01/24 02:22:20;;;;;;;;;;;;;;;9.43;47.40;102851.66;4968846;27;113468;-66
2023/01/24 02:24:53;;;;;;;;;;;;;;;9.44;46.53;102852.50;4979802;27;98071;-66
2023/01/24 02:27:19;;;;;;;;;;;;;;;9.44;47.17;102849.78;4981575;27;98174;-66
2023/01/24 02:29:44;;;;;;;;;;;;;;;9.43;46.77;102851.66;4974499;27;127746;-66
2023/01/24 02:32:12;;;;;;;;;;;;;;;9.43;46.64;102853.50;4976176;27;126513;-67
2023/01/24 02:34:38;;;;;;;;;;;;;;;9.43;46.89;102851.66;4965750;27;97906;-66
2023/01/24 02:37:07;;;;;;;;;;;;;;;9.42;47.04;102854.53;4965198;27;100182;-65
2023/01/24 02:39:40;;;;;;;;;;;;;;;9.43;47.17;102850.81;4992948;27;99719;-65
2023/01/24 02:42:10;;;;;;;;;;;;;;;9.42;46.97;102854.53;4981884;27;126237;-65
2023/01/24 02:44:53;;;;;;;;;;;;;;;9.42;47.13;102851.84;4965668;27;98200;-66
2023/01/24 02:47:19;;;;;;;;;;;;;;;9.41;47.01;102851.00;4966301;27;98007;-66
2023/01/24 02:49:45;;;;;;;;;;;;;;;9.41;47.19;102856.41;4967574;27;129389;-65
2023/01/24 02:54:55;;;;;;;;;;;;;;;9.42;47.04;102854.53;4983677;27;99180;-65
2023/01/24 03:00:07;;;;;;;;;;;;;;;9.41;46.94;102856.41;4979685;27;98457;-68
2023/01/24 03:02:33;;;;;;;;;;;;;;;9.40;47.07;102856.63;4979620;27;97982;-66
2023/01/24 03:04:59;;;;;;;;;;;;;;;9.40;46.64;102852.06;4978081;27;110249;-66
2023/01/24 03:07:25;;;;;;;;;;;;;;;9.39;47.08;102847.69;4975917;27;128990;-66
2023/01/24 03:09:50;;;;;;;;;;;;;;;9.39;47.18;102854.94;4992557;27;128043;-66
2023/01/24 03:36:57;;;;;;;;;;;;;;;9.36;47.63;102845.41;4993165;27;98304;-66
2023/01/24 03:42:07;;;;;;;;;;;;;;;9.32;47.35;102852.25;4981339;27;99850;-67
2023/01/24 03:44:33;;;;;;;;;;;;;;;9.30;47.29;102847.03;4983566;27;127439;-66
2023/01/24 03:46:59;;;;;;;;;;;;;;;9.29;47.19;102850.75;4961818;27;111957;-67
2023/01/24 03:54:55;;;;;;;;;;;;;;;9.24;47.46;102855.94;4982078;27;98101;-66
2023/01/24 03:57:22;;;;;;;;;;;;;;;9.24;47.07;102853.25;4965969;27;98184;-66
2023/01/24 03:59:48;;;;;;;;;;;;;;;9.24;47.57;102857.78;4985328;27;98747;-66
2023/01/24 04:02:14;;;;;;;;;;;;;;;9.23;47.09;102856.94;4964087;27;99554;-66
2023/01/24 04:07:25;;;;;;;;;;;;;;;9.22;47.29;102849.06;4992649;27;98294;-66
2023/01/24 04:09:51;;;;;;;;;;;;;;;9.22;46.98;102866.06;4982075;27;109982;-66
2023/01/24 04:12:17;;;;;;;;;;;;;;;9.21;47.09;102858.19;4970779;27;128429;-66
2023/01/24 04:14:43;;;;;;;;;;;;;;;9.21;47.45;102860.88;4962825;27;128376;-67
2023/01/24 04:17:09;;;;;;;;;;;;;;;9.20;47.08;102857.38;4978170;27;98149;-66
2023/01/24 04:19:35;;;;;;;;;;;;;;;9.20;47.25;102857.38;4974968;27;115676;-66
2023/01/24 04:22:01;;;;;;;;;;;;;;;9.20;47.20;102853.84;4965575;27;119194;-66
2023/01/24 04:24:27;;;;;;;;;;;;;;;9.19;47.71;102846.78;4958447;27;103916;-66
2023/01/24 04:26:53;;;;;;;;;;;;;;;9.19;46.70;102854.84;4991242;27;112591;-67
2023/01/24 04:29:20;;;;;;;;;;;;;;;9.19;47.30;102852.16;4959519;27;126521;-67
2023/01/24 04:31:46;;;;;;;;;;;;;;;9.20;46.98;102848.47;4976599;27;98461;-66
2023/01/24 04:34:12;;;;;;;;;;;;;;;9.19;46.85;102850.28;4990295;27;127543;-66
2023/01/24 04:36:38;;;;;;;;;;;;;;;9.19;47.21;102847.59;4981430;27;112039;-67
2023/01/24 04:39:03;;;;;;;;;;;;;;;9.19;47.11;102850.28;4973781;27;127250;-66
2023/01/24 04:41:29;;;;;;;;;;;;;;;9.20;46.69;102845.78;4995560;27;127962;-66
2023/01/24 04:43:55;;;;;;;;;;;;;;;9.20;47.01;102848.47;4992415;27;127400;-66
2023/01/24 04:46:21;;;;;;;;;;;;;;;9.21;47.32;102850.13;4980623;27;115604;-66
2023/01/24 04:48:47;;;;;;;;;;;;;;;9.21;46.91;102856.31;4993716;27;97872;-66
2023/01/24 04:51:13;;;;;;;;;;;;;;;9.21;47.38;102850.94;4978851;27;123397;-66
2023/01/24 04:53:39;;;;;;;;;;;;;;;9.22;46.78;102851.75;4979324;27;125947;-65
2023/01/24 04:56:06;;;;;;;;;;;;;;;9.20;47.10;102846.59;4967703;27;98054;-65
2023/01/24 04:58:32;;;;;;;;;;;;;;;9.22;47.72;102849.06;4991007;27;103925;-66
2023/01/24 05:00:58;;;;;;;;;;;;;;;9.22;47.08;102849.91;4963671;27;128774;-66
2023/01/24 05:03:23;;;;;;;;;;;;;;;9.23;47.06;102850.72;4973687;27;125616;-65
2023/01/24 05:05:50;;;;;;;;;;;;;;;9.24;47.19;102850.56;4967312;27;109075;-66
2023/01/24 05:08:16;;;;;;;;;;;;;;;9.24;47.31;102853.25;4976515;27;99703;-66
2023/01/24 05:10:42;;;;;;;;;;;;;;;9.25;47.34;102857.59;4976388;27;126096;-66
2023/01/24 05:13:08;;;;;;;;;;;;;;;9.24;47.41;102855.94;4992144;27;127560;-65
2023/01/24 05:15:34;;;;;;;;;;;;;;;9.27;47.46;102852.00;4998749;27;112582;-66
2023/01/24 05:18:00;;;;;;;;;;;;;;;9.26;47.28;102856.53;4975266;27;110562;-66
2023/01/24 05:20:26;;;;;;;;;;;;;;;9.27;47.28;102852.81;4978488;27;131673;-65
2023/01/24 05:22:51;;;;;;;;;;;;;;;9.26;47.39;102856.53;4976043;27;127630;-66
2023/01/24 05:25:17;;;;;;;;;;;;;;;9.27;47.21;102858.19;4978472;27;112700;-66
2023/01/24 05:27:44;;;;;;;;;;;;;;;9.28;47.14;102856.38;4978958;27;123602;-66
2023/01/24 05:30:10;;;;;;;;;;;;;;;9.28;47.33;102864.44;4976433;27;98726;-66
2023/01/24 05:32:36;;;;;;;;;;;;;;;9.28;46.96;102862.56;4977919;27;97980;-66
2023/01/24 05:35:02;;;;;;;;;;;;;;;9.29;47.26;102860.72;4976474;27;102444;-66
2023/01/24 05:37:28;;;;;;;;;;;;;;;9.28;46.98;102867.97;4976070;27;124914;-66
2023/01/24 05:39:54;;;;;;;;;;;;;;;9.29;47.11;102875.00;4967325;27;127682;-66
2023/01/24 05:42:20;;;;;;;;;;;;;;;9.29;47.33;102869.59;4963274;27;126027;-66
2023/01/24 05:44:46;;;;;;;;;;;;;;;9.29;47.14;102866.91;4982393;27;112112;-67
2023/01/24 05:47:11;;;;;;;;;;;;;;;9.30;47.36;102862.34;4975370;27;127960;-66
2023/01/24 05:49:37;;;;;;;;;;;;;;;9.29;47.22;102866.91;4964468;27;129216;-66
2023/01/24 05:52:03;;;;;;;;;;;;;;;9.30;47.54;102868.56;4962743;27;127728;-66
2023/01/24 05:54:29;;;;;;;;;;;;;;;9.31;47.01;102874.78;4972891;27;98154;-66
2023/01/24 05:56:55;;;;;;;;;;;;;;;9.30;46.63;102876.66;4990264;27;106001;-65
2023/01/24 05:59:21;;;;;;;;;;;;;;;9.31;47.40;102874.78;4961479;27;97937;-67
2023/01/24 06:01:47;;;;;;;;;;;;;;;9.31;47.10;102869.41;4991046;27;127480;-66
2023/01/24 06:04:13;;;;;;;;;;;;;;;9.30;47.26;102870.44;4977014;27;111892;-66
2023/01/24 06:06:39;;;;;;;;;;;;;;;9.31;46.84;102872.94;4962784;27;109306;-65
2023/01/24 06:09:05;;;;;;;;;;;;;;;9.32;47.00;102876.47;4990278;27;128181;-66
2023/01/24 06:11:33;;;;;;;;;;;;;;;9.33;46.63;102875.41;4959030;27;126696;-65
2023/01/24 06:13:58;;;;;;;;;;;;;;;9.34;47.23;102882.47;4978951;27;98120;-65
2023/01/24 06:16:25;;;;;;;;;;;;;;;9.34;47.44;102885.97;4974426;27;128388;-66
2023/01/24 06:18:53;;;;;;;;;;;;;;;9.35;46.78;102881.41;4972867;27;124321;-67
2023/01/24 06:21:19;;;;;;;;;;;;;;;9.36;46.83;102880.41;4974966;27;98420;-65
2023/01/24 06:23:45;;;;;;;;;;;;;;;9.37;47.46;102886.63;4992479;27;98175;-66
2023/01/24 06:26:11;;;;;;;;;;;;;;;9.38;47.14;102896.34;4985211;27;117445;-66
2023/01/24 06:28:38;;;;;;;;;;;;;;;9.38;47.03;102897.19;4956381;27;98018;-66
2023/01/24 06:31:09;;;;;;;;;;;;;;;9.39;47.38;102890.75;4964403;27;118649;-66
2023/01/24 06:34:02;;;;;;;;;;;;;;;9.40;47.48;102891.63;4965006;27;104876;-66
2023/01/24 06:36:34;;;;;;;;;;;;;;;9.40;47.69;102905.06;4995017;27;98082;-67
2023/01/24 06:39:00;;;;;;;;;;;;;;;9.41;47.02;102899.47;4990390;27;98750;-66
2023/01/24 06:41:27;;;;;;;;;;;;;;;9.42;46.97;102900.31;4979736;27;126218;-66
2023/01/24 06:43:53;;;;;;;;;;;;;;;9.42;47.38;102898.44;4966882;27;98128;-66
2023/01/24 06:46:19;;;;;;;;;;;;;;;9.43;47.38;102901.94;4989378;27;98158;-66
2023/01/24 06:48:45;;;;;;;;;;;;;;;9.43;47.29;102893.88;4980968;27;127710;-66
2023/01/24 06:51:14;;;;;;;;;;;;;;;9.44;47.01;102888.31;4981307;27;97997;-66
2023/01/24 06:53:40;;;;;;;;;;;;;;;9.51;47.38;102899.09;4981783;27;98273;-66
2023/01/24 06:56:07;;;;;;;;;;;;;;;9.59;47.16;102898.94;4990046;27;98420;-66
2023/01/24 06:58:33;;;;;;;;;;;;;;;9.66;47.66;102897.06;4974106;27;99229;-66
2023/01/24 07:00:58;;;;;;;;;;;;;;;9.71;47.13;102902.69;4964868;27;129759;-67
2023/01/24 07:03:24;;;;;;;;;;;;;;;9.77;47.24;102898.34;4975356;27;111618;-66
2023/01/24 07:05:50;;;;;;;;;;;;;;;9.80;47.49;102900.66;4964297;27;100079;-67
2023/01/24 07:08:19;;;;;;;;;;;;;;;9.86;46.83;102899.81;4987606;27;127125;-66
2023/01/24 07:10:45;;;;;;;;;;;;;;;9.89;47.45;102904.81;4978701;27;98097;-67
2023/01/24 07:13:11;;;;;;;;;;;;;;;9.92;47.32;102906.28;4993150;27;113334;-66
2023/01/24 07:15:37;;;;;;;;;;;;;;;9.93;47.34;102902.53;4969998;27;127186;-66
2023/01/24 07:18:12;;;;;;;;;;;;;;;9.94;47.42;102913.13;4980231;27;127542;-66
2023/01/24 07:20:39;;;;;;;;;;;;;;;9.97;47.13;102912.69;4970153;27;99134;-67
2023/01/24 07:23:05;;;;;;;;;;;;;;;9.98;47.18;102917.06;4976741;27;98087;-66
2023/01/24 07:25:31;;;;;;;;;;;;;;;10.00;47.33;102924.94;4996291;27;98887;-67
2023/01/24 07:27:57;;;;;;;;;;;;;;;9.99;47.52;102918.72;4998145;27;123183;-66
2023/01/24 07:30:23;;;;;;;;;;;;;;;10.02;47.27;102915.63;4963397;27;124714;-66
2023/01/24 07:32:48;;;;;;;;;;;;;;;10.01;47.23;102922.03;4996224;27;111762;-66
2023/01/24 07:35:14;;;;;;;;;;;;;;;10.00;47.46;102920.38;4988858;27;128087;-67
2023/01/24 07:37:40;;;;;;;;;;;;;;;10.03;46.90;102913.75;4978812;27;122798;-66
2023/01/24 07:40:07;;;;;;;;;;;;;;;10.03;47.11;102925.38;4995189;27;98624;-66
2023/01/24 07:42:33;;;;;;;;;;;;;;;10.03;47.25;102916.47;4991986;27;108957;-66
2023/01/24 07:44:59;;;;;;;;;;;;;;;10.05;47.19;102928.66;4964729;27;127439;-66
2023/01/24 07:47:26;;;;;;;;;;;;;;;10.06;47.26;102926.81;4978009;27;98445;-66
2023/01/24 07:49:52;;;;;;;;;;;;;;;10.04;47.24;102929.72;4970669;27;98389;-66
2023/01/24 07:52:18;;;;;;;;;;;;;;;10.03;46.91;102930.75;4984132;27;113028;-66
2023/01/24 07:54:44;;;;;;;;;;;;;;;10.05;47.19;102930.53;4965962;27;125413;-66
2023/01/24 07:57:10;;;;;;;;;;;;;;;10.05;47.01;102944.84;4983667;27;99651;-66
2023/01/24 07:59:35;;;;;;;;;;;;;;;10.07;47.07;102945.47;4962456;27;127099;-65
2023/01/24 08:02:01;;;;;;;;;;;;;;;10.06;47.09;102951.91;4981468;27;113680;-66
2023/01/24 08:04:27;;;;;;;;;;;;;;;10.07;47.04;102950.88;4974069;27;126001;-65
2023/01/24 08:09:38;;;;;;;;;;;;;;;10.08;46.88;102959.78;4981634;27;97873;-66
2023/01/24 08:12:03;;;;;;;;;;;;;;;10.08;47.05;102960.59;4964544;27;112293;-66
2023/01/24 08:14:29;;;;;;;;;;;;;;;10.08;47.53;102968.69;4989396;27;118111;-66
2023/01/24 08:16:55;;;;;;;;;;;;;;;10.08;46.84;102971.38;4967537;27;129495;-66
2023/01/24 08:19:21;;;;;;;;;;;;;;;10.09;47.54;102962.25;4961982;27;129537;-66
2023/01/24 08:21:47;;;;;;;;;;;;;;;10.09;47.31;102964.13;4981447;27;111417;-66
2023/01/24 08:24:13;;;;;;;;;;;;;;;10.11;46.81;102963.94;4979874;27;127509;-68
2023/01/24 08:26:39;;;;;;;;;;;;;;;10.11;46.73;102964.78;4994552;27;128078;-65
2023/01/24 08:29:05;;;;;;;;;;;;;;;10.12;46.90;102963.72;4977255;27;124058;-66
2023/01/24 08:31:31;;;;;;;;;;;;;;;10.13;46.73;102962.69;4970557;27;111026;-66
2023/01/24 08:33:57;;;;;;;;;;;;;;;10.13;47.33;102957.28;4967700;27;130441;-65
2023/01/24 08:36:23;;;;;;;;;;;;;;;10.15;47.29;102973.28;4976906;27;128094;-66
2023/01/24 08:38:49;;;;;;;;;;;;;;;10.16;47.38;102966.84;4983435;27;97872;-66
2023/01/24 08:41:15;;;;;;;;;;;;;;;10.16;47.02;102966.84;4978901;27;99628;-68
2023/01/24 08:43:42;;;;;;;;;;;;;;;10.17;47.04;102966.63;4979109;27;127995;-65
2023/01/24 08:46:08;;;;;;;;;;;;;;;10.18;46.93;102970.16;4978820;27;98716;-67
2023/01/24 08:48:33;;;;;;;;;;;;;;;10.18;47.04;102973.72;4976924;27;127574;-66
2023/01/24 08:51:03;;;;;;;;;;;;;;;10.19;47.08;102966.44;4992656;27;112545;-66
2023/01/24 08:53:29;;;;;;;;;;;;;;;10.19;46.85;102969.16;4977141;27;99462;-66
2023/01/24 08:55:55;;;;;;;;;;;;;;;10.19;46.97;102966.44;4966618;27;127688;-66
2023/01/24 08:58:21;;;;;;;;;;;;;;;10.20;47.23;102973.50;4977375;27;98254;-66
2023/01/24 09:00:47;;;;;;;;;;;;;;;10.21;46.90;102969.75;4966990;27;113074;-66
2023/01/24 09:03:14;;;;;;;;;;;;;;;10.21;46.74;102967.88;4975745;27;99109;-66
2023/01/24 09:05:40;;;;;;;;;;;;;;;10.21;47.00;102973.28;4967449;27;103030;-66
2023/01/24 09:08:06;;;;;;;;;;;;;;;10.22;46.73;102961.47;4962025;27;102245;-66
2023/01/24 09:10:32;;;;;;;;;;;;;;;10.23;47.21;102965.84;4964037;27;99023;-66
2023/01/24 09:12:57;;;;;;;;;;;;;;;10.25;46.96;102961.06;4995785;27;127818;-66
2023/01/24 09:15:23;;;;;;;;;;;;;;;10.27;46.87;102963.59;4965747;27;127911;-66
2023/01/24 09:17:49;;;;;;;;;;;;;;;10.28;47.01;102973.34;5003025;27;106697;-66
2023/01/24 09:20:16;;;;;;;;;;;;;;;10.29;47.13;102964.19;4974990;27;112020;-65
2023/01/24 09:22:42;;;;;;;;;;;;;;;10.30;46.91;102960.50;4980256;27;98506;-68
2023/01/24 09:25:08;;;;;;;;;;;;;;;10.32;46.63;102964.63;4963499;27;131085;-66
2023/01/24 09:27:37;;;;;;;;;;;;;;;10.33;46.74;102962.75;4990381;27;108251;-66
2023/01/24 09:30:04;;;;;;;;;;;;;;;10.36;46.75;102966.91;4966762;27;98035;-66
2023/01/24 09:32:30;;;;;;;;;;;;;;;10.37;47.11;102966.69;4979867;27;98611;-66
2023/01/24 09:34:56;;;;;;;;;;;;;;;10.39;46.88;102967.34;4992713;27;125473;-66
2023/01/24 09:37:22;;;;;;;;;;;;;;;10.42;46.92;102971.50;4984030;27;127829;-66
2023/01/24 09:39:48;;;;;;;;;;;;;;;10.43;47.28;102965.88;4980322;27;98156;-66
2023/01/24 09:42:26;;;;;;;;;;;;;;;10.44;46.62;102962.16;4979471;27;125393;-66
2023/01/24 09:45:08;;;;;;;;;;;;;;;10.46;46.98;102961.97;4996105;27;99602;-66
2023/01/24 09:47:50;;;;;;;;;;;;;;;10.50;47.07;102960.50;4996780;27;100594;-66
2023/01/24 09:50:32;;;;;;;;;;;;;;;10.51;46.77;102956.78;4980597;27;98242;-66
2023/01/24 09:52:58;;;;;;;;;;;;;;;10.52;46.60;102961.13;4976576;27;120897;-65
2023/01/24 09:55:36;;;;;;;;;;;;;;;10.53;46.68;102958.22;4963425;27;127304;-65
2023/01/24 09:58:28;;;;;;;;;;;;;;;10.55;46.71;102960.72;4967650;27;98082;-66
2023/01/24 10:00:54;;;;;;;;;;;;;;;10.56;47.11;102963.19;5001897;27;98305;-66
2023/01/24 10:03:21;;;;;;;;;;;;;;;10.57;46.88;102962.19;4980734;27;131442;-65
2023/01/24 10:05:49;;;;;;;;;;;;;;;10.59;47.13;102964.66;4968558;27;99597;-66
2023/01/24 10:08:23;;;;;;;;;;;;;;;10.60;46.51;102955.50;4967706;27;98532;-65
2023/01/24 10:11:46;;;;;;;;;;;;;;;10.62;46.82;102958.03;4994147;27;98131;-66
2023/01/24 10:14:36;;;;;;;;;;;;;;;10.63;47.04;102956.97;4952030;28;98444;-66
2023/01/24 10:17:06;;;;;;;;;;;;;;;10.63;46.64;102960.50;4952806;28;98510;-66
2023/01/24 10:19:44;;;;;;;;;;;;;;;10.64;46.84;102953.25;4964075;27;123236;-67
2023/01/24 10:22:28;;;;;;;;;;;;;;;10.64;46.51;102955.94;4981978;27;97989;-67
2023/01/24 10:25:06;;;;;;;;;;;;;;;10.65;46.56;102944.09;4990645;27;98046;-66
2023/01/24 10:27:36;;;;;;;;;;;;;;;10.65;46.93;102944.09;4984636;27;102775;-67
2023/01/24 10:30:12;;;;;;;;;;;;;;;10.66;46.99;102949.31;4993835;27;114009;-66
2023/01/24 10:32:43;;;;;;;;;;;;;;;10.66;46.87;102945.78;4982994;27;99099;-66
2023/01/24 10:35:25;;;;;;;;;;;;;;;10.68;46.73;102941.00;5000312;27;98388;-66
2023/01/24 10:37:55;;;;;;;;;;;;;;;10.67;47.05;102942.88;4996313;27;113242;-66
2023/01/24 10:40:21;;;;;;;;;;;;;;;10.67;47.06;102948.25;4994573;27;97973;-66
2023/01/24 10:42:47;;;;;;;;;;;;;;;10.68;47.04;102951.78;4980685;27;101388;-65
2023/01/24 10:45:35;;;;;;;;;;;;;;;10.67;46.96;102944.75;4980727;27;128848;-65
2023/01/24 10:48:27;;;;;;;;;;;;;;;10.67;46.81;102950.97;4973615;27;97849;-66
2023/01/24 10:50:53;;;;;;;;;;;;;;;10.68;46.77;102944.53;4984437;27;99157;-66
2023/01/24 10:53:25;;;;;;;;;;;;;;;10.69;47.25;102939.94;4960344;27;98222;-66
2023/01/24 10:55:59;;;;;;;;;;;;;;;10.70;47.19;102947.03;4979528;27;119534;-66
2023/01/24 10:58:32;;;;;;;;;;;;;;;10.71;46.69;102951.38;4963442;27;100098;-66
2023/01/24 11:01:00;;;;;;;;;;;;;;;10.69;47.09;102943.50;4994484;27;106820;-66
2023/01/24 11:03:30;;;;;;;;;;;;;;;10.69;46.69;102940.81;4964038;27;101836;-66
2023/01/24 11:05:57;;;;;;;;;;;;;;;10.72;46.91;102943.06;4969521;27;98029;-66
2023/01/24 11:08:24;;;;;;;;;;;;;;;10.73;46.77;102943.91;4974844;27;98531;-66
2023/01/24 11:10:54;;;;;;;;;;;;;;;10.73;46.63;102936.66;4974198;27;99896;-66
2023/01/24 11:13:38;;;;;;;;;;;;;;;10.73;47.07;102933.13;4961159;27;100350;-66
2023/01/24 11:16:21;;;;;;;;;;;;;;;10.74;46.73;102935.59;4999123;27;122976;-66
2023/01/24 11:19:00;;;;;;;;;;;;;;;10.73;46.60;102931.25;4982772;27;98842;-66
2023/01/24 11:21:26;;;;;;;;;;;;;;;10.74;47.20;102938.31;4996097;27;98497;-65
2023/01/24 11:24:01;;;;;;;;;;;;;;;10.75;46.81;102928.34;4982139;27;98025;-66
2023/01/24 11:26:29;;;;;;;;;;;;;;;10.74;46.50;102927.50;4979396;27;99488;-67
2023/01/24 11:29:19;;;;;;;;;;;;;;;10.75;47.00;102931.84;4993081;27;97817;-66
2023/01/24 11:31:55;;;;;;;;;;;;;;;10.74;47.09;102922.13;4988512;27;99212;-67
2023/01/24 11:34:27;;;;;;;;;;;;;;;10.76;47.12;102924.59;4963343;27;97880;-66
2023/01/24 11:37:31;;;;;;;;;;;;;;;10.76;46.83;102919.19;4997905;27;98190;-66
2023/01/24 11:40:19;;;;;;;;;;;;;;;10.77;47.06;102908.22;4974263;27;98329;-67
2023/01/24 11:42:50;;;;;;;;;;;;;;;10.78;47.09;102917.13;4992992;27;98075;-65
2023/01/24 11:45:32;;;;;;;;;;;;;;;10.78;46.79;102914.44;4994130;27;97979;-66
2023/01/24 11:48:15;;;;;;;;;;;;;;;10.78;47.03;102915.25;4981605;27;98281;-66
2023/01/24 11:51:00;;;;;;;;;;;;;;;10.79;47.10;102911.50;4985411;27;99597;-67
2023/01/24 11:53:32;;;;;;;;;;;;;;;10.79;47.08;102908.81;4991683;27;97901;-65
2023/01/24 11:56:27;;;;;;;;;;;;;;;10.78;46.95;102903.66;5000208;27;99697;-66
2023/01/24 11:59:26;;;;;;;;;;;;;;;10.79;46.95;102902.59;4984583;27;98193;-65
2023/01/24 12:02:08;;;;;;;;;;;;;;;10.79;47.17;102900.72;4995863;27;98704;-65
2023/01/24 12:04:53;;;;;;;;;;;;;;;10.80;46.80;102907.78;4980548;27;99395;-66
2023/01/24 12:07:50;;;;;;;;;;;;;;;10.80;46.77;102904.25;4979108;27;99226;-66
2023/01/24 12:10:24;;;;;;;;;;;;;;;10.81;46.71;102905.94;4994777;27;98108;-66
2023/01/24 12:13:10;;;;;;;;;;;;;;;10.81;47.04;102909.44;4984062;27;108307;-67
2023/01/24 12:15:53;;;;;;;;;;;;;;;10.82;47.07;102910.28;4998865;27;98115;-65
2023/01/24 12:18:32;;;;;;;;;;;;;;;10.82;46.83;102905.72;4973210;27;98307;-65
2023/01/24 12:21:08;;;;;;;;;;;;;;;10.82;46.83;102903.00;4997654;27;98278;-65
2023/01/24 12:23:51;;;;;;;;;;;;;;;10.82;46.93;102916.50;4995434;27;98282;-67
2023/01/24 12:26:27;;;;;;;;;;;;;;;10.82;47.09;102915.66;4979525;27;124958;-66
2023/01/24 12:29:03;;;;;;;;;;;;;;;10.83;47.15;102909.22;4992488;27;98169;-67
2023/01/24 12:31:50;;;;;;;;;;;;;;;10.80;46.78;102905.06;4981768;27;106968;-66
2023/01/24 12:34:50;;;;;;;;;;;;;;;10.80;46.83;102917.75;4998522;27;99547;-66
2023/01/24 12:37:19;;;;;;;;;;;;;;;10.79;47.16;102908.81;4995281;27;98144;-67
2023/01/24 12:40:00;;;;;;;;;;;;;;;10.78;46.92;102906.34;4997337;27;97857;-66
2023/01/24 12:42:45;;;;;;;;;;;;;;;10.77;47.19;102900.13;4966062;27;100222;-66
2023/01/24 12:45:26;;;;;;;;;;;;;;;10.77;46.85;102905.53;4997077;27;99921;-65
2023/01/24 12:47:56;;;;;;;;;;;;;;;10.77;47.22;102902.81;4983185;27;99913;-65
2023/01/24 12:50:27;;;;;;;;;;;;;;;10.76;47.11;102905.72;4985743;27;99045;-67
2023/01/24 12:53:04;;;;;;;;;;;;;;;10.73;47.34;102904.28;4994809;27;109174;-66
2023/01/24 12:55:35;;;;;;;;;;;;;;;10.73;46.91;102903.44;4982309;27;117711;-67
2023/01/24 12:58:16;;;;;;;;;;;;;;;10.73;47.45;102908.84;4979117;27;98834;-65
2023/01/24 13:01:20;;;;;;;;;;;;;;;10.72;46.95;102899.06;4983282;27;99230;-66
2023/01/24 13:03:55;;;;;;;;;;;;;;;10.71;47.32;102906.34;4996349;27;98370;-66
2023/01/24 13:06:43;;;;;;;;;;;;;;;10.70;47.19;102906.56;4993036;27;98224;-66
2023/01/24 13:09:39;;;;;;;;;;;;;;;10.69;46.89;102902.19;4990499;27;110147;-67
2023/01/24 13:12:11;;;;;;;;;;;;;;;10.68;47.01;102908.63;5000938;27;97999;-66
2023/01/24 13:14:40;;;;;;;;;;;;;;;10.67;47.41;102906.97;4964537;27;107822;-67
2023/01/24 13:17:06;;;;;;;;;;;;;;;10.65;46.93;102896.41;4979510;27;121511;-66
2023/01/24 13:19:57;;;;;;;;;;;;;;;10.65;47.29;102893.72;4993307;27;99039;-65
2023/01/24 13:22:41;;;;;;;;;;;;;;;10.65;47.43;102906.34;4994660;27;98021;-67
2023/01/24 13:25:48;;;;;;;;;;;;;;;10.63;46.89;102898.47;4990664;27;99926;-65
2023/01/24 13:28:26;;;;;;;;;;;;;;;10.64;47.14;102904.69;4983837;27;98279;-65
2023/01/24 13:31:16;;;;;;;;;;;;;;;10.63;46.98;102906.56;4995606;27;98353;-66
2023/01/24 13:33:59;;;;;;;;;;;;;;;10.62;47.41;102904.09;4993448;27;98116;-65
2023/01/24 13:36:30;;;;;;;;;;;;;;;10.60;47.32;102901.56;4977200;27;98631;-65
2023/01/24 13:38:56;;;;;;;;;;;;;;;10.62;46.84;102902.22;4981146;27;98027;-65